createdAt,value
2019-01-29T00:01:53.644Z,0.67
2019-01-29T00:04:26.120Z,0.65
2019-01-29T00:06:58.247Z,0.64
2019-01-29T00:09:30.845Z,0.62
2019-01-29T00:12:03.424Z,0.65
2019-01-29T00:14:35.610Z,0.64
2019-01-29T00:17:07.400Z,0.67
2019-01-29T00:19:39.173Z,0.69
2019-01-29T00:22:11.068Z,0.70
2019-01-29T00:24:43.022Z,0.67
2019-01-29T00:27:14.892Z,0.67
2019-01-29T00:29:46.731Z,0.69
2019-01-29T00:32:18.943Z,0.67
2019-01-29T00:34:51.127Z,0.69
2019-01-29T00:37:23.104Z,0.67
2019-01-29T00:39:54.885Z,0.68
2019-01-29T00:42:26.776Z,0.67
2019-01-29T00:44:58.602Z,0.64
2019-01-29T00:47:31.299Z,0.61
2019-01-29T00:50:03.437Z,0.55
2019-01-29T00:52:41.914Z,0.52
2019-01-29T00:55:10.427Z,0.53
2019-01-29T00:57:42.310Z,0.47
2019-01-29T01:00:22.286Z,0.49
2019-01-29T01:02:54.035Z,0.48
2019-01-29T01:05:25.873Z,0.48
2019-01-29T01:07:57.891Z,0.47
2019-01-29T01:10:29.733Z,0.50
2019-01-29T01:13:01.880Z,0.45
2019-01-29T01:15:33.740Z,0.43
2019-01-29T01:18:05.596Z,0.46
2019-01-29T01:20:37.525Z,0.37
2019-01-29T01:23:09.272Z,0.40
2019-01-29T01:25:41.380Z,0.36
2019-01-29T01:28:13.134Z,0.29
2019-01-29T01:30:45.191Z,0.25
2019-01-29T01:33:17.096Z,0.24
2019-01-29T01:35:48.828Z,0.23
2019-01-29T01:38:20.606Z,0.22
2019-01-29T01:40:52.376Z,0.20
2019-01-29T01:43:24.131Z,0.22
2019-01-29T01:45:55.882Z,0.17
2019-01-29T01:48:27.707Z,0.21
2019-01-29T01:50:59.790Z,0.18
2019-01-29T01:53:31.642Z,0.12
2019-01-29T01:56:03.424Z,0.09
2019-01-29T01:58:35.235Z,0.08
2019-01-29T02:01:07.103Z,0.00
2019-01-29T02:03:38.843Z,0.11
2019-01-29T02:06:10.716Z,0.08
2019-01-29T02:08:42.552Z,0.07
2019-01-29T02:11:14.408Z,0.08
2019-01-29T02:13:46.508Z,0.08
2019-01-29T02:16:18.493Z,0.01
2019-01-29T02:18:50.533Z,0.11
2019-01-29T02:21:23.109Z,0.12
2019-01-29T02:23:55.503Z,0.09
2019-01-29T02:26:27.324Z,0.14
2019-01-29T02:28:59.406Z,0.13
2019-01-29T02:31:31.244Z,0.13
2019-01-29T02:34:02.989Z,0.11
2019-01-29T02:36:34.808Z,0.13
2019-01-29T02:39:09.920Z,0.13
2019-01-29T02:41:41.927Z,0.07
2019-01-29T02:44:13.781Z,0.05
2019-01-29T02:46:45.576Z,0.07
2019-01-29T02:49:17.428Z,0.06
2019-01-29T02:51:49.543Z,0.01
2019-01-29T02:54:21.287Z,0.05
2019-01-29T02:56:53.100Z,0.06
2019-01-29T02:59:24.846Z,0.09
2019-01-29T03:01:56.742Z,0.08
2019-01-29T03:04:28.577Z,0.15
2019-01-29T03:07:00.348Z,0.11
2019-01-29T03:09:32.223Z,0.13
2019-01-29T03:12:04.175Z,0.14
2019-01-29T03:14:36.002Z,0.17
2019-01-29T03:17:07.846Z,0.20
2019-01-29T03:19:39.703Z,0.25
2019-01-29T03:22:11.574Z,0.24
2019-01-29T03:24:43.420Z,0.28
2019-01-29T03:27:15.290Z,0.30
2019-01-29T03:29:47.348Z,0.39
2019-01-29T03:32:19.149Z,0.42
2019-01-29T03:34:51.210Z,0.42
2019-01-29T03:37:22.991Z,0.43
2019-01-29T03:39:55.143Z,0.49
2019-01-29T03:42:27.260Z,0.50
2019-01-29T03:44:58.993Z,0.49
2019-01-29T03:47:30.878Z,0.48
2019-01-29T03:50:02.820Z,0.49
2019-01-29T03:52:34.586Z,0.47
2019-01-29T03:55:06.725Z,0.53
2019-01-29T03:57:38.915Z,0.53
2019-01-29T04:00:20.591Z,0.53
2019-01-29T04:02:52.546Z,0.53
2019-01-29T04:05:24.283Z,0.50
2019-01-29T04:07:56.073Z,0.54
2019-01-29T04:10:27.974Z,0.54
2019-01-29T04:13:00.189Z,0.57
2019-01-29T04:15:32.607Z,0.56
2019-01-29T04:18:04.588Z,0.57
2019-01-29T04:20:36.541Z,0.57
2019-01-29T04:23:08.366Z,0.56
2019-01-29T04:25:40.184Z,0.62
2019-01-29T04:28:12.011Z,0.59
2019-01-29T04:30:43.906Z,0.58
2019-01-29T04:33:15.893Z,0.58
2019-01-29T04:35:47.975Z,0.56
2019-01-29T04:38:19.737Z,0.59
2019-01-29T04:40:51.895Z,0.58
2019-01-29T04:43:24.398Z,0.55
2019-01-29T04:45:56.420Z,0.53
2019-01-29T04:48:28.381Z,0.50
2019-01-29T04:51:00.230Z,0.54
2019-01-29T04:53:32.024Z,0.50
2019-01-29T04:56:03.976Z,0.47
2019-01-29T04:58:36.252Z,0.48
2019-01-29T05:01:08.452Z,0.44
2019-01-29T05:03:40.405Z,0.46
2019-01-29T05:06:12.546Z,0.44
2019-01-29T05:08:44.297Z,0.41
2019-01-29T05:11:16.149Z,0.35
2019-01-29T05:13:48.067Z,0.39
2019-01-29T05:16:20.008Z,0.40
2019-01-29T05:18:51.812Z,0.41
2019-01-29T05:21:23.709Z,0.39
2019-01-29T05:23:55.779Z,0.38
2019-01-29T05:26:27.872Z,0.42
2019-01-29T05:28:59.971Z,0.43
2019-01-29T05:31:32.372Z,0.43
2019-01-29T05:34:04.463Z,0.45
2019-01-29T05:36:36.276Z,0.43
2019-01-29T05:39:10.746Z,0.43
2019-01-29T05:41:42.950Z,0.44
2019-01-29T05:44:15.329Z,0.45
2019-01-29T05:46:47.308Z,0.47
2019-01-29T05:49:19.158Z,0.47
2019-01-29T05:51:50.998Z,0.46
2019-01-29T05:54:22.741Z,0.47
2019-01-29T05:56:54.624Z,0.47
2019-01-29T05:59:26.457Z,0.44
2019-01-29T06:01:58.313Z,0.46
2019-01-29T06:04:30.440Z,0.48
2019-01-29T06:07:02.388Z,0.45
2019-01-29T06:09:34.341Z,0.47
2019-01-29T06:12:06.107Z,0.48
2019-01-29T06:14:38.389Z,0.42
2019-01-29T06:17:11.163Z,0.40
2019-01-29T06:19:43.182Z,0.39
2019-01-29T06:22:15.295Z,0.38
2019-01-29T06:24:47.439Z,0.38
2019-01-29T06:27:19.476Z,0.35
2019-01-29T06:29:51.565Z,0.33
2019-01-29T06:32:42.473Z,0.32
2019-01-29T06:35:15.856Z,0.35
2019-01-29T06:37:47.709Z,0.34
2019-01-29T06:40:22.868Z,0.40
2019-01-29T06:42:55.050Z,0.41
2019-01-29T06:45:27.429Z,0.37
2019-01-29T06:47:59.458Z,0.36
2019-01-29T06:50:31.389Z,0.30
2019-01-29T06:53:03.299Z,0.31
2019-01-29T06:55:35.120Z,0.32
2019-01-29T06:58:06.990Z,0.38
2019-01-29T07:00:39.378Z,0.32
2019-01-29T07:03:11.423Z,0.30
2019-01-29T07:05:43.633Z,0.27
2019-01-29T07:08:15.684Z,0.35
2019-01-29T07:10:47.643Z,0.30
2019-01-29T07:13:19.802Z,0.35
2019-01-29T07:16:09.094Z,0.32
2019-01-29T07:18:52.531Z,0.31
2019-01-29T07:21:24.290Z,0.36
2019-01-29T07:23:56.258Z,0.37
2019-01-29T07:26:28.069Z,0.36
2019-01-29T07:29:00.318Z,0.36
2019-01-29T07:31:32.625Z,0.40
2019-01-29T07:34:04.396Z,0.40
2019-01-29T07:36:36.588Z,0.38
2019-01-29T07:39:11.693Z,0.41
2019-01-29T07:41:43.867Z,0.44
2019-01-29T07:44:15.950Z,0.45
2019-01-29T07:46:48.078Z,0.44
2019-01-29T07:49:20.078Z,0.45
2019-01-29T07:51:51.901Z,0.46
2019-01-29T07:54:23.806Z,0.49
2019-01-29T07:56:55.591Z,0.51
2019-01-29T07:59:33.188Z,0.49
2019-01-29T08:02:01.188Z,0.51
2019-01-29T08:04:32.964Z,0.55
2019-01-29T08:07:04.970Z,0.58
2019-01-29T08:09:37.821Z,0.60
2019-01-29T08:12:11.241Z,0.62
2019-01-29T08:14:43.036Z,0.65
2019-01-29T08:17:15.147Z,0.66
2019-01-29T08:19:47.037Z,0.70
2019-01-29T08:22:18.970Z,0.75
2019-01-29T08:24:52.095Z,0.73
2019-01-29T08:27:24.369Z,0.75
2019-01-29T08:29:56.118Z,0.76
2019-01-29T08:32:27.957Z,0.79
2019-01-29T08:34:59.776Z,0.84
2019-01-29T08:37:31.659Z,0.85
2019-01-29T08:40:03.431Z,0.85
2019-01-29T08:42:35.786Z,0.90
2019-01-29T08:45:08.775Z,0.93
2019-01-29T08:47:40.831Z,0.96
2019-01-29T08:50:16.796Z,0.95
2019-01-29T08:52:50.774Z,0.95
2019-01-29T08:55:22.567Z,0.96
2019-01-29T08:57:54.623Z,1.00
2019-01-29T09:00:26.387Z,1.03
2019-01-29T09:02:58.234Z,1.07
2019-01-29T09:05:30.134Z,1.06
2019-01-29T09:08:02.036Z,1.10
2019-01-29T09:10:33.935Z,1.14
2019-01-29T09:13:05.694Z,1.23
2019-01-29T09:15:37.547Z,1.28
2019-01-29T09:18:09.308Z,1.20
2019-01-29T09:20:41.090Z,1.16
2019-01-29T09:23:12.906Z,1.13
2019-01-29T09:25:44.729Z,1.02
2019-01-29T09:28:18.502Z,0.93
2019-01-29T09:30:50.006Z,0.83
2019-01-29T09:33:21.826Z,0.89
2019-01-29T09:35:53.615Z,0.82
2019-01-29T09:38:25.375Z,1.00
2019-01-29T09:40:58.055Z,1.17
2019-01-29T09:43:30.078Z,1.34
2019-01-29T09:46:02.432Z,1.49
2019-01-29T09:48:35.014Z,1.64
2019-01-29T09:51:07.657Z,1.63
2019-01-29T09:53:39.401Z,1.41
2019-01-29T09:56:11.731Z,1.70
2019-01-29T09:58:44.076Z,1.69
2019-01-29T10:01:15.855Z,1.82
2019-01-29T10:03:48.165Z,1.99
2019-01-29T10:06:20.248Z,2.06
2019-01-29T10:08:52.032Z,2.20
2019-01-29T10:11:24.448Z,2.06
2019-01-29T10:13:57.151Z,1.98
2019-01-29T10:16:29.612Z,2.05
2019-01-29T10:19:01.362Z,1.95
2019-01-29T10:21:33.770Z,1.96
2019-01-29T10:24:06.094Z,2.03
2019-01-29T10:26:38.564Z,1.97
2019-01-29T10:29:10.894Z,2.08
2019-01-29T10:31:43.369Z,2.25
2019-01-29T10:34:15.715Z,2.37
2019-01-29T10:36:48.316Z,2.31
2019-01-29T10:39:20.951Z,2.31
2019-01-29T10:41:52.839Z,2.39
2019-01-29T10:44:25.154Z,2.44
2019-01-29T10:46:57.586Z,2.50
2019-01-29T10:49:29.900Z,2.86
2019-01-29T10:52:02.529Z,2.58
2019-01-29T10:54:35.048Z,2.62
2019-01-29T10:57:07.394Z,2.79
2019-01-29T10:59:39.719Z,2.81
2019-01-29T11:02:13.127Z,2.45
2019-01-29T11:04:45.186Z,2.66
2019-01-29T11:07:17.777Z,2.66
2019-01-29T11:09:50.217Z,2.80
2019-01-29T11:12:22.559Z,2.63
2019-01-29T11:14:55.205Z,2.83
2019-01-29T11:17:27.479Z,2.97
2019-01-29T11:19:59.565Z,2.72
2019-01-29T11:22:33.023Z,2.90
2019-01-29T11:25:05.898Z,2.91
2019-01-29T11:27:38.283Z,3.02
2019-01-29T11:30:12.113Z,3.35
2019-01-29T11:32:44.806Z,3.43
2019-01-29T11:35:16.919Z,3.50
2019-01-29T11:37:48.705Z,3.60
2019-01-29T11:40:23.836Z,3.51
2019-01-29T11:42:56.202Z,3.46
2019-01-29T11:45:48.407Z,3.41
2019-01-29T11:48:20.798Z,3.06
2019-01-29T11:50:53.101Z,2.91
2019-01-29T11:53:25.594Z,3.23
2019-01-29T11:56:04.405Z,3.13
2019-01-29T11:58:32.076Z,3.20
2019-01-29T12:01:11.722Z,3.08
2019-01-29T12:03:44.043Z,3.11
2019-01-29T12:06:16.382Z,3.07
2019-01-29T12:08:48.763Z,3.26
2019-01-29T12:11:21.221Z,3.14
2019-01-29T12:13:53.690Z,3.28
2019-01-29T12:16:25.995Z,3.37
2019-01-29T12:18:58.429Z,3.36
2019-01-29T12:21:30.767Z,3.21
2019-01-29T12:24:03.168Z,3.29
2019-01-29T12:26:35.620Z,3.23
2019-01-29T12:29:07.953Z,3.36
2019-01-29T12:31:40.371Z,3.52
2019-01-29T12:34:12.700Z,3.38
2019-01-29T12:36:45.095Z,3.74
2019-01-29T12:39:17.774Z,3.60
2019-01-29T12:41:49.524Z,3.65
2019-01-29T12:44:22.227Z,3.75
2019-01-29T12:46:54.556Z,3.97
2019-01-29T12:49:26.397Z,3.57
2019-01-29T12:52:07.550Z,3.55
2019-01-29T12:54:39.989Z,3.68
2019-01-29T12:57:12.325Z,3.53
2019-01-29T12:59:44.703Z,4.04
2019-01-29T13:02:17.016Z,4.26
2019-01-29T13:04:49.387Z,4.38
2019-01-29T13:07:21.839Z,3.56
2019-01-29T13:09:54.521Z,3.34
2019-01-29T13:12:26.406Z,3.66
2019-01-29T13:14:58.811Z,3.63
2019-01-29T13:17:31.197Z,3.78
2019-01-29T13:20:03.912Z,3.42
2019-01-29T13:22:35.967Z,3.18
2019-01-29T13:25:09.592Z,3.45
2019-01-29T13:27:42.357Z,3.71
2019-01-29T13:30:25.464Z,3.83
2019-01-29T13:32:57.828Z,3.89
2019-01-29T13:35:33.094Z,4.10
2019-01-29T13:38:05.774Z,4.12
2019-01-29T13:40:37.953Z,4.13
2019-01-29T13:43:10.344Z,3.99
2019-01-29T13:45:42.806Z,3.91
2019-01-29T13:48:15.435Z,3.87
2019-01-29T13:50:52.849Z,4.00
2019-01-29T13:53:27.825Z,4.06
2019-01-29T13:56:00.294Z,3.60
2019-01-29T13:58:32.775Z,3.82
2019-01-29T14:01:05.283Z,3.72
2019-01-29T14:03:37.659Z,3.86
2019-01-29T14:06:10.144Z,3.70
2019-01-29T14:08:42.567Z,3.46
2019-01-29T14:11:16.566Z,3.30
2019-01-29T14:13:49.084Z,3.41
2019-01-29T14:16:21.884Z,3.45
2019-01-29T14:18:54.017Z,3.50
2019-01-29T14:21:26.354Z,3.43
2019-01-29T14:23:58.764Z,3.42
2019-01-29T14:26:31.293Z,3.56
2019-01-29T14:29:03.889Z,3.47
2019-01-29T14:31:35.663Z,3.49
2019-01-29T14:34:07.967Z,3.49
2019-01-29T14:36:40.314Z,3.29
2019-01-29T14:39:33.606Z,3.24
2019-01-29T14:42:05.744Z,3.37
2019-01-29T14:44:43.475Z,3.14
2019-01-29T14:47:17.659Z,3.32
2019-01-29T14:49:49.973Z,3.36
2019-01-29T14:52:22.353Z,3.42
2019-01-29T14:54:54.759Z,3.32
2019-01-29T14:57:27.134Z,3.37
2019-01-29T14:59:59.528Z,3.32
2019-01-29T15:02:31.861Z,3.42
2019-01-29T15:05:04.296Z,3.23
2019-01-29T15:07:36.884Z,3.33
2019-01-29T15:10:12.308Z,3.33
2019-01-29T15:12:45.189Z,3.31
2019-01-29T15:15:17.289Z,3.29
2019-01-29T15:17:53.884Z,3.23
2019-01-29T15:20:26.716Z,3.12
2019-01-29T15:22:59.035Z,3.17
2019-01-29T15:25:30.893Z,2.99
2019-01-29T15:28:03.333Z,2.95
2019-01-29T15:30:35.835Z,2.81
2019-01-29T15:33:08.205Z,2.79
2019-01-29T15:35:40.925Z,2.79
2019-01-29T15:38:12.790Z,2.77
2019-01-29T15:40:45.420Z,2.79
2019-01-29T15:43:17.218Z,2.65
2019-01-29T15:45:49.644Z,2.50
2019-01-29T15:48:22.071Z,2.47
2019-01-29T15:50:54.384Z,2.39
2019-01-29T15:53:26.863Z,2.42
2019-01-29T15:55:59.180Z,2.50
2019-01-29T15:58:31.553Z,2.35
2019-01-29T16:01:03.813Z,2.38
2019-01-29T16:03:36.286Z,2.19
2019-01-29T16:06:08.648Z,2.28
2019-01-29T16:08:40.996Z,2.20
2019-01-29T16:11:13.287Z,2.15
2019-01-29T16:13:45.714Z,1.91
2019-01-29T16:16:18.028Z,1.76
2019-01-29T16:18:50.470Z,1.94
2019-01-29T16:21:22.815Z,1.77
2019-01-29T16:23:55.144Z,1.71
2019-01-29T16:26:27.548Z,1.64
2019-01-29T16:29:00.311Z,1.47
2019-01-29T16:31:32.060Z,1.46
2019-01-29T16:34:04.761Z,1.59
2019-01-29T16:36:36.585Z,1.39
2019-01-29T16:39:10.911Z,1.50
2019-01-29T16:41:43.255Z,1.45
2019-01-29T16:44:15.891Z,1.39
2019-01-29T16:46:47.965Z,1.29
2019-01-29T16:49:20.135Z,1.17
2019-01-29T16:51:52.000Z,1.13
2019-01-29T16:54:24.428Z,1.11
2019-01-29T16:56:56.749Z,1.06
2019-01-29T16:59:29.123Z,1.03
2019-01-29T17:02:01.605Z,1.06
2019-01-29T17:04:35.086Z,0.97
2019-01-29T17:07:07.568Z,0.95
2019-01-29T17:09:39.695Z,0.91
2019-01-29T17:12:11.811Z,0.90
2019-01-29T17:14:44.218Z,0.88
2019-01-29T17:17:16.703Z,0.86
2019-01-29T17:19:49.061Z,0.81
2019-01-29T17:22:21.400Z,0.71
2019-01-29T17:24:53.743Z,0.76
2019-01-29T17:27:26.126Z,0.68
2019-01-29T17:29:58.785Z,0.54
2019-01-29T17:32:30.786Z,0.53
2019-01-29T17:35:03.262Z,0.51
2019-01-29T17:37:35.892Z,0.51
2019-01-29T17:40:08.581Z,0.41
2019-01-29T17:42:40.704Z,0.38
2019-01-29T17:45:15.935Z,0.36
2019-01-29T17:47:48.296Z,0.36
2019-01-29T17:50:24.171Z,0.37
2019-01-29T17:52:56.462Z,0.25
2019-01-29T17:55:30.680Z,0.19
2019-01-29T17:58:03.130Z,0.16
2019-01-29T18:00:35.978Z,0.12
2019-01-29T18:03:08.376Z,0.10
2019-01-29T18:05:40.431Z,0.04
2019-01-29T18:08:12.922Z,-0.02
2019-01-29T18:10:44.868Z,-0.11
2019-01-29T18:13:16.746Z,-0.18
2019-01-29T18:15:48.874Z,-0.21
2019-01-29T18:18:20.660Z,-0.29
2019-01-29T18:20:52.599Z,-0.39
2019-01-29T18:23:24.441Z,-0.41
2019-01-29T18:25:56.329Z,-0.48
2019-01-29T18:28:28.088Z,-0.55
2019-01-29T18:30:59.978Z,-0.58
2019-01-29T18:33:31.815Z,-0.62
2019-01-29T18:36:30.657Z,-0.70
2019-01-29T18:39:04.662Z,-0.72
2019-01-29T18:41:36.551Z,-0.81
2019-01-29T18:44:09.292Z,-0.85
2019-01-29T18:46:41.504Z,-0.87
2019-01-29T18:49:13.639Z,-0.92
2019-01-29T18:51:45.432Z,-0.97
2019-01-29T18:54:17.263Z,-0.97
2019-01-29T18:56:49.210Z,-1.03
2019-01-29T18:59:21.227Z,-1.07
2019-01-29T19:01:53.077Z,-1.18
2019-01-29T19:04:25.209Z,-1.21
2019-01-29T19:06:57.013Z,-1.26
2019-01-29T19:09:28.917Z,-1.29
2019-01-29T19:12:00.764Z,-1.37
2019-01-29T19:14:32.923Z,-1.43
2019-01-29T19:17:05.314Z,-1.47
2019-01-29T19:19:37.381Z,-1.52
2019-01-29T19:22:09.201Z,-1.54
2019-01-29T19:24:41.241Z,-1.54
2019-01-29T19:27:13.010Z,-1.57
2019-01-29T19:29:45.078Z,-1.59
2019-01-29T19:32:16.916Z,-1.70
2019-01-29T19:34:48.740Z,-1.74
2019-01-29T19:37:20.508Z,-1.76
2019-01-29T19:39:52.684Z,-1.78
2019-01-29T19:42:27.517Z,-1.80
2019-01-29T19:44:58.468Z,-1.85
2019-01-29T19:47:30.390Z,-1.92
2019-01-29T19:50:02.201Z,-1.99
2019-01-29T19:52:33.970Z,-2.04
2019-01-29T19:55:06.018Z,-2.05
2019-01-29T19:57:37.812Z,-2.08
2019-01-29T20:00:18.103Z,-2.17
2019-01-29T20:02:50.576Z,-2.26
2019-01-29T20:05:22.634Z,-2.29
2019-01-29T20:07:54.382Z,-2.29
2019-01-29T20:10:26.570Z,-2.37
2019-01-29T20:12:59.045Z,-2.32
2019-01-29T20:15:31.401Z,-2.36
2019-01-29T20:18:03.599Z,-2.44
2019-01-29T20:20:38.889Z,-2.46
2019-01-29T20:23:10.747Z,-2.50
2019-01-29T20:25:42.931Z,-2.48
2019-01-29T20:28:15.298Z,-2.48
2019-01-29T20:30:47.476Z,-2.49
2019-01-29T20:33:19.510Z,-2.61
2019-01-29T20:35:51.575Z,-2.67
2019-01-29T20:38:23.889Z,-2.58
2019-01-29T20:40:56.033Z,-2.66
2019-01-29T20:43:27.920Z,-2.63
2019-01-29T20:46:00.235Z,-2.78
2019-01-29T20:48:32.430Z,-2.67
2019-01-29T20:51:04.307Z,-2.61
2019-01-29T20:53:36.486Z,-2.55
2019-01-29T20:56:09.877Z,-2.60
2019-01-29T20:58:41.680Z,-2.68
2019-01-29T21:01:13.537Z,-2.76
2019-01-29T21:03:45.511Z,-2.73
2019-01-29T21:06:17.365Z,-2.73
2019-01-29T21:08:49.461Z,-2.64
2019-01-29T21:11:21.390Z,-2.70
2019-01-29T21:13:53.169Z,-2.83
2019-01-29T21:16:24.954Z,-2.69
2019-01-29T21:18:56.804Z,-2.73
2019-01-29T21:21:28.797Z,-2.66
2019-01-29T21:24:00.849Z,-2.69
2019-01-29T21:26:33.012Z,-2.54
2019-01-29T21:29:05.091Z,-2.73
2019-01-29T21:31:36.970Z,-2.71
2019-01-29T21:34:08.902Z,-2.62
2019-01-29T21:36:41.145Z,-2.62
2019-01-29T21:39:13.228Z,-2.60
2019-01-29T21:41:45.234Z,-2.65
2019-01-29T21:44:17.499Z,-2.48
2019-01-29T21:46:49.579Z,-2.63
2019-01-29T21:49:21.675Z,-2.56
2019-01-29T21:51:53.831Z,-2.58
2019-01-29T21:54:26.375Z,-2.46
2019-01-29T21:56:58.795Z,-2.56
2019-01-29T21:59:31.198Z,-2.52
2019-01-29T22:02:03.326Z,-2.64
2019-01-29T22:04:35.490Z,-2.63
2019-01-29T22:07:07.283Z,-2.70
2019-01-29T22:09:39.420Z,-2.63
2019-01-29T22:12:11.252Z,-2.49
2019-01-29T22:14:43.006Z,-2.64
2019-01-29T22:17:15.113Z,-2.69
2019-01-29T22:19:47.186Z,-2.77
2019-01-29T22:22:18.991Z,-2.74
2019-01-29T22:24:51.014Z,-2.77
2019-01-29T22:27:24.293Z,-2.84
2019-01-29T22:29:56.567Z,-2.82
2019-01-29T22:32:28.639Z,-2.86
2019-01-29T22:35:00.809Z,-2.96
2019-01-29T22:37:32.716Z,-3.06
2019-01-29T22:40:05.436Z,-2.86
2019-01-29T22:42:38.415Z,-2.92
2019-01-29T22:45:12.421Z,-2.98
2019-01-29T22:48:24.884Z,-2.95
2019-01-29T22:50:57.149Z,-3.04
2019-01-29T22:53:29.041Z,-3.05
2019-01-29T22:56:01.120Z,-3.21
2019-01-29T22:58:32.931Z,-3.11
2019-01-29T23:01:35.661Z,-3.20
2019-01-29T23:04:18.277Z,-3.21
2019-01-29T23:07:01.293Z,-3.22
2019-01-29T23:09:33.638Z,-3.34
2019-01-29T23:12:05.511Z,-3.28
2019-01-29T23:14:37.290Z,-3.35
2019-01-29T23:17:09.144Z,-3.44
2019-01-29T23:19:41.435Z,-3.54
2019-01-29T23:22:13.790Z,-3.64
2019-01-29T23:24:50.459Z,-3.55
2019-01-29T23:27:22.329Z,-3.62
2019-01-29T23:29:54.616Z,-3.74
2019-01-29T23:32:26.955Z,-3.70
2019-01-29T23:34:58.733Z,-3.76
2019-01-29T23:37:30.899Z,-3.73
2019-01-29T23:40:03.044Z,-3.76
2019-01-29T23:42:34.823Z,-3.87
2019-01-29T23:45:09.324Z,-3.88
2019-01-29T23:47:41.217Z,-3.93
2019-01-29T23:50:14.168Z,-3.88
2019-01-29T23:52:46.212Z,-3.84
2019-01-29T23:55:17.977Z,-3.70
2019-01-29T23:57:49.884Z,-3.79
